RJAN(METAR)
12/04 16:00
RJAN 040700Z 26023G34KT 9999 RA BKNXXX 16/11 Q1015 RMK A3000=
戻る
トップページへ戻る
IMOC Co,.Ltd.